Morinville, Canada
Current Conditions -  °F | °C
As of 7:00 AM on Saturday 20 Dec 2014 (Local Time) from CYED Reporting Station
Clear Clear  
Wind Chill: 11°   Ceiling: Unl
Heat Index: 18°   Visibility: 8mi
Dew Point: 14°   Wind: 5mph
Humidity: 86%   Direction: 230°SW
Pressure: 29.67"   Gusts: NA
Location:  53.8°N, 113.65°W
Report Text: CYED 201400Z AUTO 23004KT 8SM CLR M08/M10 A2967 RMK SLP088
Loading
Personal Weather Stations






























Interactive Weather Map New forecast layout! Learn more

10-Day Weather Forecast

Advertisements
Track Severe Weather on mobile